createdAt,value
2018-03-19T00:00:40.644Z,4.43
2018-03-19T00:03:08.160Z,3.13
2018-03-19T00:05:35.645Z,3.70
2018-03-19T00:08:03.185Z,4.23
2018-03-19T00:10:30.675Z,4.30
2018-03-19T00:12:58.196Z,3.13
2018-03-19T00:15:25.684Z,4.07
2018-03-19T00:17:53.964Z,4.10
2018-03-19T00:20:22.217Z,5.13
2018-03-19T00:22:49.744Z,4.00
2018-03-19T00:25:17.266Z,4.33
2018-03-19T00:27:44.766Z,3.37
2018-03-19T00:30:13.036Z,4.40
2018-03-19T00:32:40.551Z,5.07
2018-03-19T00:35:08.073Z,3.80
2018-03-19T00:37:35.570Z,3.70
2018-03-19T00:40:03.104Z,4.03
2018-03-19T00:42:30.592Z,4.20
2018-03-19T00:44:58.118Z,3.87
2018-03-19T00:47:25.608Z,4.87
2018-03-19T00:49:53.128Z,3.87
2018-03-19T00:52:21.387Z,3.70
2018-03-19T00:54:48.903Z,4.73
2018-03-19T00:57:16.398Z,4.20
2018-03-19T00:59:43.928Z,4.50
2018-03-19T01:02:12.180Z,4.50
2018-03-19T01:04:39.713Z,4.87
2018-03-19T01:07:07.244Z,4.30
2018-03-19T01:09:34.744Z,4.60
2018-03-19T01:12:02.231Z,3.97
2018-03-19T01:14:29.752Z,3.73
2018-03-19T01:16:57.246Z,5.23
2018-03-19T01:19:25.543Z,5.13
2018-03-19T01:21:53.801Z,4.50
2018-03-19T01:24:21.317Z,4.57
2018-03-19T01:26:48.814Z,4.43
2018-03-19T01:29:17.096Z,4.60
2018-03-19T01:31:44.589Z,4.03
2018-03-19T01:34:12.106Z,3.40
2018-03-19T01:36:40.356Z,3.77
2018-03-19T01:39:08.031Z,3.60
2018-03-19T01:41:35.520Z,4.57
2018-03-19T01:44:03.048Z,5.13
2018-03-19T01:46:30.536Z,4.17
2018-03-19T01:48:58.064Z,4.90
2018-03-19T01:51:25.551Z,4.40
2018-03-19T01:53:53.072Z,3.13
2018-03-19T01:56:20.583Z,5.20
2018-03-19T01:58:48.128Z,4.70
2018-03-19T02:01:15.611Z,3.00
2018-03-19T02:03:43.916Z,4.23
2018-03-19T02:06:11.401Z,4.87
2018-03-19T02:08:38.913Z,3.47
2018-03-19T02:11:06.408Z,5.53
2018-03-19T02:13:34.700Z,5.03
2018-03-19T02:16:02.960Z,5.23
2018-03-19T02:18:30.476Z,5.30
2018-03-19T02:20:57.955Z,5.10
2018-03-19T02:23:25.465Z,4.43
2018-03-19T02:25:52.968Z,5.70
2018-03-19T02:28:21.247Z,5.03
2018-03-19T02:30:48.732Z,5.73
2018-03-19T02:33:17.017Z,4.80
2018-03-19T02:35:45.271Z,5.37
2018-03-19T02:38:12.792Z,5.23
2018-03-19T02:40:40.286Z,5.60
2018-03-19T02:43:07.801Z,4.70
2018-03-19T02:45:35.292Z,4.33
2018-03-19T02:48:02.816Z,5.33
2018-03-19T02:50:30.304Z,5.00
2018-03-19T02:52:57.823Z,5.40
2018-03-19T02:55:25.311Z,5.33
2018-03-19T02:57:52.837Z,4.90
2018-03-19T03:00:20.324Z,4.60
2018-03-19T03:02:48.615Z,4.47
2018-03-19T03:05:16.113Z,4.97
2018-03-19T03:07:43.639Z,5.20
2018-03-19T03:10:11.128Z,5.10
2018-03-19T03:12:39.416Z,4.93
2018-03-19T03:15:07.680Z,5.47
2018-03-19T03:17:35.206Z,5.17
2018-03-19T03:20:02.718Z,5.00
2018-03-19T03:22:30.232Z,5.20
2018-03-19T03:24:57.716Z,4.93
2018-03-19T03:27:25.232Z,5.33
2018-03-19T03:29:52.732Z,4.80
2018-03-19T03:32:21.012Z,4.40
2018-03-19T03:34:48.512Z,5.13
2018-03-19T03:37:16.028Z,3.83
2018-03-19T03:39:43.558Z,4.70
2018-03-19T03:42:11.075Z,5.43
2018-03-19T03:44:38.559Z,4.90
2018-03-19T03:47:06.076Z,5.47
2018-03-19T03:49:33.579Z,4.40
2018-03-19T03:52:01.092Z,3.90
2018-03-19T03:54:29.347Z,4.87
2018-03-19T03:56:56.894Z,5.20
2018-03-19T03:59:24.388Z,4.60
2018-03-19T04:01:51.931Z,4.30
2018-03-19T04:04:19.417Z,4.80
2018-03-19T04:06:46.939Z,4.87
2018-03-19T04:09:15.199Z,3.67
2018-03-19T04:11:42.735Z,2.73
2018-03-19T04:14:10.230Z,4.23
2018-03-19T04:16:37.750Z,5.50
2018-03-19T04:19:06.007Z,3.23
2018-03-19T04:21:33.524Z,5.73
2018-03-19T04:24:01.005Z,5.47
2018-03-19T04:26:28.523Z,4.93
2018-03-19T04:28:56.013Z,5.30
2018-03-19T04:31:24.291Z,6.00
2018-03-19T04:33:51.772Z,6.33
2018-03-19T04:36:19.316Z,4.20
2018-03-19T04:38:46.803Z,5.83
2018-03-19T04:41:14.321Z,5.20
2018-03-19T04:43:41.808Z,4.20
2018-03-19T04:46:09.345Z,3.70
2018-03-19T04:48:36.839Z,4.60
2018-03-19T04:51:04.548Z,6.30
2018-03-19T04:53:32.040Z,5.30
2018-03-19T04:56:00.324Z,5.60
2018-03-19T04:58:27.812Z,4.93
2018-03-19T05:00:55.444Z,5.10
2018-03-19T05:03:23.007Z,5.40
2018-03-19T05:05:50.541Z,5.27
2018-03-19T05:08:18.046Z,5.00
2018-03-19T05:10:45.575Z,6.10
2018-03-19T05:13:13.833Z,5.80
2018-03-19T05:15:41.372Z,5.50
2018-03-19T05:18:08.863Z,6.00
2018-03-19T05:20:36.377Z,5.03
2018-03-19T05:23:04.648Z,5.30
2018-03-19T05:25:32.170Z,5.70
2018-03-19T05:27:59.665Z,4.47
2018-03-19T05:30:27.192Z,4.90
2018-03-19T05:32:54.686Z,5.50
2018-03-19T05:35:22.212Z,5.77
2018-03-19T05:37:50.473Z,6.07
2018-03-19T05:40:17.993Z,4.17
2018-03-19T05:42:45.491Z,4.40
2018-03-19T05:45:13.018Z,5.63
2018-03-19T05:47:41.280Z,6.97
2018-03-19T05:50:08.808Z,5.97
2018-03-19T05:52:36.308Z,6.07
2018-03-19T05:55:03.851Z,6.73
2018-03-19T05:57:31.571Z,4.90
2018-03-19T05:59:59.101Z,5.13
2018-03-19T06:02:26.621Z,5.67
2018-03-19T06:04:54.185Z,6.70
2018-03-19T06:07:21.683Z,6.60
2018-03-19T06:09:49.968Z,5.77
2018-03-19T06:12:17.458Z,5.73
2018-03-19T06:14:44.982Z,5.63
2018-03-19T06:17:12.492Z,6.33
2018-03-19T06:19:40.043Z,5.87
2018-03-19T06:22:07.549Z,5.57
2018-03-19T06:24:35.097Z,6.87
2018-03-19T06:27:03.366Z,5.90
2018-03-19T06:29:30.928Z,5.40
2018-03-19T06:31:58.416Z,4.00
2018-03-19T06:34:25.945Z,6.37
2018-03-19T06:36:53.488Z,3.90
2018-03-19T06:39:21.012Z,5.80
2018-03-19T06:41:48.508Z,6.93
2018-03-19T06:44:16.032Z,6.33
2018-03-19T06:46:43.520Z,4.43
2018-03-19T06:49:11.049Z,5.63
2018-03-19T06:51:38.536Z,6.10
2018-03-19T06:54:06.060Z,5.87
2018-03-19T06:56:33.555Z,5.30
2018-03-19T06:59:01.092Z,4.10
2018-03-19T07:01:28.588Z,6.20
2018-03-19T07:03:56.876Z,5.43
2018-03-19T07:06:24.425Z,6.30
2018-03-19T07:08:51.899Z,4.63
2018-03-19T07:11:19.395Z,6.27
2018-03-19T07:13:47.689Z,5.70
2018-03-19T07:16:15.959Z,6.00
2018-03-19T07:18:43.484Z,6.20
2018-03-19T07:21:10.979Z,5.37
2018-03-19T07:23:38.540Z,4.70
2018-03-19T07:26:06.028Z,5.73
2018-03-19T07:28:33.564Z,5.00
2018-03-19T07:31:01.082Z,6.50
2018-03-19T07:33:28.604Z,5.80
2018-03-19T07:35:56.103Z,5.67
2018-03-19T07:38:23.665Z,5.10
2018-03-19T07:40:51.186Z,5.40
2018-03-19T07:43:18.708Z,7.93
2018-03-19T07:45:46.196Z,4.80
2018-03-19T07:48:13.770Z,6.53
2018-03-19T07:50:41.224Z,6.57
2018-03-19T07:53:08.816Z,6.53
2018-03-19T07:55:36.318Z,5.37
2018-03-19T07:58:04.608Z,6.57
2018-03-19T08:00:32.113Z,6.57
2018-03-19T08:02:59.629Z,3.40
2018-03-19T08:05:27.146Z,4.47
2018-03-19T08:07:54.687Z,6.80
2018-03-19T08:10:22.172Z,6.33
2018-03-19T08:12:50.475Z,7.20
2018-03-19T08:15:17.973Z,6.50
2018-03-19T08:17:45.579Z,5.30
2018-03-19T08:20:13.092Z,6.67
2018-03-19T08:22:40.646Z,6.03
2018-03-19T08:25:08.911Z,6.10
2018-03-19T08:27:36.448Z,6.87
2018-03-19T08:30:03.936Z,4.97
2018-03-19T08:32:31.462Z,6.80
2018-03-19T08:34:58.961Z,6.00
2018-03-19T08:37:26.488Z,6.67
2018-03-19T08:39:54.740Z,5.50
2018-03-19T08:42:22.909Z,5.60
2018-03-19T08:44:50.400Z,8.10
2018-03-19T08:47:18.852Z,7.73
2018-03-19T08:49:46.976Z,7.50
2018-03-19T08:52:14.527Z,5.77
2018-03-19T08:54:42.015Z,7.40
2018-03-19T08:57:09.547Z,6.70
2018-03-19T08:59:37.039Z,6.70
2018-03-19T09:02:04.560Z,6.77
2018-03-19T09:04:32.064Z,6.00
2018-03-19T09:06:59.576Z,8.20
2018-03-19T09:09:27.073Z,7.23
2018-03-19T09:11:54.997Z,8.47
2018-03-19T09:14:22.505Z,7.80
2018-03-19T09:16:50.018Z,7.17
2018-03-19T09:19:18.281Z,7.03
2018-03-19T09:21:45.799Z,6.67
2018-03-19T09:24:13.288Z,6.87
2018-03-19T09:26:41.568Z,7.67
2018-03-19T09:29:09.053Z,6.23
2018-03-19T09:31:36.572Z,7.87
2018-03-19T09:34:04.085Z,7.80
2018-03-19T09:36:31.630Z,6.73
2018-03-19T09:38:59.923Z,8.37
2018-03-19T09:41:27.444Z,7.77
2018-03-19T09:43:55.374Z,7.93
2018-03-19T09:46:22.914Z,7.50
2018-03-19T09:48:50.431Z,7.57
2018-03-19T09:51:19.780Z,6.13
2018-03-19T09:53:47.276Z,7.20
2018-03-19T09:56:14.800Z,7.07
2018-03-19T09:58:42.287Z,7.47
2018-03-19T10:01:09.805Z,6.63
2018-03-19T10:03:38.061Z,7.90
2018-03-19T10:06:05.575Z,7.97
2018-03-19T10:08:33.831Z,6.83
2018-03-19T10:11:01.357Z,6.60
2018-03-19T10:13:28.884Z,7.47
2018-03-19T10:15:56.407Z,7.57
2018-03-19T10:18:24.644Z,6.20
2018-03-19T10:20:52.162Z,7.43
2018-03-19T10:23:20.676Z,7.40
2018-03-19T10:25:48.206Z,8.00
2018-03-19T10:28:16.196Z,7.27
2018-03-19T10:30:43.741Z,7.33
2018-03-19T10:33:11.246Z,5.30
2018-03-19T10:35:38.802Z,5.33
2018-03-19T10:38:07.271Z,5.60
2018-03-19T10:40:34.844Z,6.53
2018-03-19T10:43:02.335Z,8.90
2018-03-19T10:45:29.893Z,6.53
2018-03-19T10:47:58.152Z,7.00
2018-03-19T10:50:26.368Z,7.50
2018-03-19T10:52:54.654Z,6.33
2018-03-19T10:55:22.194Z,7.77
2018-03-19T10:57:49.748Z,8.17
2018-03-19T11:00:17.244Z,7.83
2018-03-19T11:02:51.870Z,7.73
2018-03-19T11:05:35.051Z,7.20
2018-03-19T11:08:08.159Z,7.47
2018-03-19T11:10:36.488Z,6.60
2018-03-19T11:13:03.974Z,7.20
2018-03-19T11:15:31.502Z,7.40
2018-03-19T11:17:59.755Z,7.50
2018-03-19T11:20:27.288Z,7.10
2018-03-19T11:22:54.777Z,8.00
2018-03-19T11:25:22.326Z,8.00
2018-03-19T11:27:49.813Z,8.70
2018-03-19T11:30:17.349Z,7.90
2018-03-19T11:32:45.626Z,7.60
2018-03-19T11:35:13.921Z,7.13
2018-03-19T11:37:42.172Z,8.43
2018-03-19T11:40:09.721Z,8.80
2018-03-19T11:42:37.216Z,7.17
2018-03-19T11:45:04.765Z,8.07
2018-03-19T11:47:32.257Z,9.50
2018-03-19T11:49:59.780Z,8.50
2018-03-19T11:52:28.595Z,8.47
2018-03-19T11:54:56.244Z,9.00
2018-03-19T11:57:24.504Z,8.83
2018-03-19T11:59:52.021Z,7.47
2018-03-19T12:02:20.283Z,7.20
2018-03-19T12:04:48.970Z,7.87
2018-03-19T12:07:16.433Z,7.90
2018-03-19T12:09:43.986Z,8.30
2018-03-19T12:12:11.472Z,8.30
2018-03-19T12:14:38.991Z,7.07
2018-03-19T12:17:06.485Z,8.47
2018-03-19T12:19:34.000Z,7.50
2018-03-19T12:22:01.498Z,6.30
2018-03-19T12:24:29.797Z,7.73
2018-03-19T12:26:57.289Z,8.10
2018-03-19T12:29:24.821Z,9.00
2018-03-19T12:31:52.428Z,7.63
2018-03-19T12:34:19.948Z,7.70
2018-03-19T12:36:47.441Z,7.70
2018-03-19T12:39:14.956Z,7.37
2018-03-19T12:41:42.448Z,6.13
2018-03-19T12:44:09.984Z,7.03
2018-03-19T12:46:37.474Z,6.50
2018-03-19T12:49:04.994Z,5.27
2018-03-19T12:51:33.246Z,5.90
2018-03-19T12:54:00.789Z,6.03
2018-03-19T12:56:28.284Z,5.70
2018-03-19T12:58:55.811Z,6.57
2018-03-19T13:01:25.109Z,6.30
2018-03-19T13:03:53.456Z,6.30
2018-03-19T13:06:20.972Z,8.10
2018-03-19T13:08:49.256Z,6.00
2018-03-19T13:11:16.744Z,6.40
2018-03-19T13:13:45.020Z,6.30
2018-03-19T13:16:12.513Z,6.60
2018-03-19T13:18:40.033Z,5.43
2018-03-19T13:21:07.512Z,5.70
2018-03-19T13:23:35.034Z,6.23
2018-03-19T13:26:02.517Z,5.67
2018-03-19T13:28:30.057Z,7.27
2018-03-19T13:30:57.545Z,5.40
2018-03-19T13:33:25.070Z,5.90
2018-03-19T13:35:52.583Z,6.00
2018-03-19T13:38:20.109Z,6.10
2018-03-19T13:40:47.590Z,5.20
2018-03-19T13:43:15.117Z,6.00
2018-03-19T13:45:42.678Z,4.97
2018-03-19T13:48:10.202Z,5.57
2018-03-19T13:50:37.693Z,5.93
2018-03-19T13:53:05.308Z,5.80
2018-03-19T13:55:32.808Z,6.30
2018-03-19T13:58:00.330Z,5.57
2018-03-19T14:00:27.826Z,5.67
2018-03-19T14:02:55.336Z,5.60
2018-03-19T14:05:22.863Z,5.90
2018-03-19T14:07:51.130Z,5.17
2018-03-19T14:10:19.375Z,5.13
2018-03-19T14:12:46.966Z,5.80
2018-03-19T14:15:14.455Z,6.67
2018-03-19T14:17:42.779Z,5.67
2018-03-19T14:20:10.275Z,6.00
2018-03-19T14:22:37.786Z,6.33
2018-03-19T14:25:06.044Z,5.80
2018-03-19T14:27:33.636Z,5.60
2018-03-19T14:30:01.063Z,5.23
2018-03-19T14:32:28.577Z,6.03
2018-03-19T14:34:56.057Z,6.00
2018-03-19T14:37:24.366Z,5.20
2018-03-19T14:39:51.879Z,5.10
2018-03-19T14:42:19.399Z,6.50
2018-03-19T14:44:46.891Z,5.63
2018-03-19T14:47:14.412Z,5.30
2018-03-19T14:49:41.967Z,5.13
2018-03-19T14:52:09.480Z,6.17
2018-03-19T14:54:37.735Z,5.60
2018-03-19T14:57:05.232Z,4.97
2018-03-19T14:59:33.521Z,5.17
2018-03-19T15:02:01.795Z,7.43
2018-03-19T15:04:29.372Z,5.60
2018-03-19T15:06:56.821Z,5.03
2018-03-19T15:09:24.379Z,5.87
2018-03-19T15:11:51.865Z,6.17
2018-03-19T15:14:19.385Z,6.00
2018-03-19T15:16:46.895Z,6.53
2018-03-19T15:19:14.405Z,5.30
2018-03-19T15:21:41.908Z,5.93
2018-03-19T15:24:09.513Z,5.60
2018-03-19T15:26:37.013Z,6.20
2018-03-19T15:29:04.599Z,5.40
2018-03-19T15:31:32.850Z,5.60
2018-03-19T15:34:00.372Z,5.50
2018-03-19T15:36:28.624Z,5.50
2018-03-19T15:38:56.144Z,5.53
2018-03-19T15:41:23.636Z,5.00
2018-03-19T15:43:53.159Z,5.90
2018-03-19T15:46:20.692Z,5.80
2018-03-19T15:48:49.005Z,5.10
2018-03-19T15:51:16.499Z,5.07
2018-03-19T15:53:44.064Z,4.80
2018-03-19T15:56:11.547Z,5.30
2018-03-19T15:58:39.059Z,5.00
2018-03-19T16:01:07.316Z,5.00
2018-03-19T16:03:34.861Z,4.93
2018-03-19T16:06:02.351Z,5.20
2018-03-19T16:08:29.859Z,4.90
2018-03-19T16:10:57.355Z,4.67
2018-03-19T16:13:24.888Z,3.87
2018-03-19T16:15:52.388Z,4.07
2018-03-19T16:18:20.674Z,4.07
2018-03-19T16:20:48.925Z,4.13
2018-03-19T16:23:16.455Z,4.00
2018-03-19T16:25:43.991Z,3.50
2018-03-19T16:28:12.288Z,4.00
2018-03-19T16:30:40.548Z,4.40
2018-03-19T16:33:08.088Z,3.80
2018-03-19T16:35:35.604Z,3.70
2018-03-19T16:38:03.112Z,4.00
2018-03-19T16:40:30.672Z,3.83
2018-03-19T16:42:58.955Z,4.63
2018-03-19T16:45:26.488Z,4.40
2018-03-19T16:47:54.004Z,4.63
2018-03-19T16:50:21.496Z,3.70
2018-03-19T16:52:49.287Z,3.53
2018-03-19T16:55:17.593Z,4.17
2018-03-19T16:57:45.140Z,3.60
2018-03-19T17:00:12.738Z,3.33
2018-03-19T17:02:40.284Z,3.90
2018-03-19T17:05:10.476Z,3.30
2018-03-19T17:07:37.992Z,3.40
2018-03-19T17:10:05.482Z,4.40
2018-03-19T17:12:33.008Z,4.30
2018-03-19T17:15:01.344Z,5.00
2018-03-19T17:17:29.077Z,4.10
2018-03-19T17:19:57.333Z,4.20
2018-03-19T17:22:25.636Z,4.90
2018-03-19T17:24:53.147Z,4.60
2018-03-19T17:27:21.016Z,5.27
2018-03-19T17:29:48.503Z,5.23
2018-03-19T17:32:16.037Z,6.40
2018-03-19T17:34:43.992Z,5.73
2018-03-19T17:37:11.528Z,4.40
2018-03-19T17:39:41.449Z,4.70
2018-03-19T17:42:08.990Z,4.93
2018-03-19T17:44:37.249Z,5.10
2018-03-19T17:47:04.764Z,5.30
2018-03-19T17:49:33.028Z,4.43
2018-03-19T17:52:00.550Z,4.67
2018-03-19T17:54:28.045Z,4.27
2018-03-19T17:56:55.568Z,4.33
2018-03-19T17:59:24.935Z,4.17
2018-03-19T18:01:52.661Z,4.50
2018-03-19T18:04:20.923Z,4.30
2018-03-19T18:06:48.461Z,4.50
2018-03-19T18:09:17.298Z,5.00
2018-03-19T18:11:45.090Z,4.90
2018-03-19T18:14:13.332Z,4.73
2018-03-19T18:16:42.628Z,4.47
2018-03-19T18:19:10.112Z,4.17
2018-03-19T18:21:37.626Z,4.50
2018-03-19T18:24:05.297Z,4.33
2018-03-19T18:26:32.820Z,8.70
2018-03-19T18:29:00.803Z,4.80
2018-03-19T18:31:28.807Z,4.10
2018-03-19T18:33:56.299Z,5.33
2018-03-19T18:36:23.940Z,4.80
2018-03-19T18:38:52.480Z,4.77
2018-03-19T18:41:21.130Z,5.07
2018-03-19T18:43:48.632Z,6.23
2018-03-19T18:46:16.341Z,5.50
2018-03-19T18:48:44.595Z,5.10
2018-03-19T18:51:23.182Z,5.37
2018-03-19T18:54:09.169Z,5.13
2018-03-19T18:56:38.072Z,5.93
2018-03-19T18:59:12.291Z,5.37
2018-03-19T19:01:40.681Z,6.10
2018-03-19T19:04:08.215Z,6.37
2018-03-19T19:06:35.805Z,6.47
2018-03-19T19:09:03.354Z,5.00
2018-03-19T19:11:30.860Z,5.97
2018-03-19T19:13:58.431Z,6.57
2018-03-19T19:16:25.985Z,5.43
2018-03-19T19:18:53.509Z,5.90
2018-03-19T19:21:21.054Z,6.43
2018-03-19T19:23:48.597Z,5.97
2018-03-19T19:26:16.094Z,6.43
2018-03-19T19:28:43.650Z,6.43
2018-03-19T19:31:23.881Z,6.53
2018-03-19T19:33:51.513Z,6.10
2018-03-19T19:36:32.915Z,6.40
2018-03-19T19:39:00.494Z,5.80
2018-03-19T19:41:27.992Z,5.87
2018-03-19T19:43:55.528Z,7.17
2018-03-19T19:46:23.802Z,6.53
2018-03-19T19:48:51.347Z,6.17
2018-03-19T19:51:18.852Z,6.47
2018-03-19T19:53:46.396Z,6.53
2018-03-19T19:56:13.916Z,5.70
2018-03-19T19:58:42.168Z,6.40
2018-03-19T20:01:09.716Z,6.23
2018-03-19T20:03:37.280Z,6.83
2018-03-19T20:06:04.808Z,6.63
2018-03-19T20:08:32.294Z,5.47
2018-03-19T20:11:00.707Z,6.10
2018-03-19T20:13:28.188Z,6.33
2018-03-19T20:15:55.694Z,6.07
2018-03-19T20:18:23.217Z,5.90
2018-03-19T20:20:51.080Z,5.40
2018-03-19T20:23:18.601Z,5.13
2018-03-19T20:25:46.088Z,6.10
2018-03-19T20:28:13.612Z,5.93
2018-03-19T20:30:41.104Z,5.70
2018-03-19T20:33:08.659Z,5.53
2018-03-19T20:35:36.161Z,5.60
2018-03-19T20:38:04.734Z,5.97
2018-03-19T20:40:32.297Z,5.83
2018-03-19T20:43:00.256Z,5.33
2018-03-19T20:45:28.533Z,5.77
2018-03-19T20:47:56.052Z,5.10
2018-03-19T20:50:23.561Z,5.20
2018-03-19T20:52:51.172Z,6.00
2018-03-19T20:55:19.428Z,4.67
2018-03-19T20:57:46.939Z,4.60
2018-03-19T21:00:15.261Z,5.60
2018-03-19T21:02:42.801Z,6.40
2018-03-19T21:05:10.300Z,5.60
2018-03-19T21:07:37.880Z,4.87
2018-03-19T21:10:05.595Z,5.30
2018-03-19T21:12:33.126Z,5.10
2018-03-19T21:15:00.628Z,5.47
2018-03-19T21:17:28.314Z,5.80
2018-03-19T21:19:55.840Z,6.17
2018-03-19T21:22:23.373Z,5.47
2018-03-19T21:24:51.660Z,6.20
2018-03-19T21:27:19.959Z,5.70
2018-03-19T21:29:56.984Z,5.83
2018-03-19T21:32:24.966Z,5.80
2018-03-19T21:34:52.465Z,5.60
2018-03-19T21:37:19.993Z,4.90
2018-03-19T21:39:47.519Z,5.97
2018-03-19T21:42:15.340Z,5.47
2018-03-19T21:44:42.888Z,5.53
2018-03-19T21:47:12.351Z,4.70
2018-03-19T21:49:52.730Z,5.57
2018-03-19T21:52:20.340Z,4.73
2018-03-19T21:54:47.851Z,5.00
2018-03-19T21:57:16.269Z,4.60
2018-03-19T21:59:43.791Z,4.80
2018-03-19T22:02:11.358Z,4.80
2018-03-19T22:04:38.853Z,5.03
2018-03-19T22:07:06.397Z,5.20
2018-03-19T22:09:34.117Z,4.80
2018-03-19T22:12:01.641Z,4.70
2018-03-19T22:14:29.132Z,5.13
2018-03-19T22:16:57.426Z,4.27
2018-03-19T22:19:25.709Z,5.20
2018-03-19T22:21:54.001Z,5.10
2018-03-19T22:24:22.341Z,5.87
2018-03-19T22:26:49.859Z,5.10
2018-03-19T22:29:18.154Z,4.80
2018-03-19T22:31:46.449Z,4.60
2018-03-19T22:34:13.942Z,4.57
2018-03-19T22:36:41.459Z,4.10
2018-03-19T22:39:08.948Z,4.67
2018-03-19T22:41:37.256Z,4.37
2018-03-19T22:44:05.685Z,3.53
2018-03-19T22:46:33.174Z,5.00
2018-03-19T22:49:00.756Z,4.83
2018-03-19T22:51:28.235Z,4.57
2018-03-19T22:53:55.753Z,4.63
2018-03-19T22:56:23.248Z,4.90
2018-03-19T22:58:50.759Z,4.03
2018-03-19T23:01:18.258Z,5.30
2018-03-19T23:03:45.776Z,4.73
2018-03-19T23:06:13.285Z,3.87
2018-03-19T23:08:40.853Z,4.60
2018-03-19T23:11:08.311Z,4.80
2018-03-19T23:13:35.868Z,5.53
2018-03-19T23:16:03.359Z,5.50
2018-03-19T23:18:31.640Z,5.20
2018-03-19T23:20:59.227Z,4.80
2018-03-19T23:23:27.512Z,5.27
2018-03-19T23:25:55.764Z,4.70
2018-03-19T23:28:23.276Z,4.63
2018-03-19T23:30:51.588Z,5.53
2018-03-19T23:33:19.074Z,5.23
2018-03-19T23:35:46.568Z,6.47
2018-03-19T23:38:14.099Z,5.80
2018-03-19T23:40:41.605Z,5.27
2018-03-19T23:43:09.135Z,5.60
2018-03-19T23:45:37.392Z,5.47
2018-03-19T23:48:04.905Z,5.20
2018-03-19T23:50:32.395Z,6.10
2018-03-19T23:52:59.912Z,4.97
2018-03-19T23:55:27.436Z,5.17
2018-03-19T23:57:54.996Z,4.57
